sensor_id;sensor_type;location;lat;lon;timestamp;temperature;humidity
1594;DHT22;790;47.000;16.084;2023-03-01T00:01:01;2.80;99.90
1594;DHT22;790;47.000;16.084;2023-03-01T00:03:28;2.80;99.90
1594;DHT22;790;47.000;16.084;2023-03-01T00:05:55;2.80;99.90
1594;DHT22;790;47.000;16.084;2023-03-01T00:08:24;2.80;99.90
1594;DHT22;790;47.000;16.084;2023-03-01T00:11:00;2.80;99.90
1594;DHT22;790;47.000;16.084;2023-03-01T00:13:28;2.60;99.90
1594;DHT22;790;47.000;16.084;2023-03-01T00:15:55;2.50;99.90
1594;DHT22;790;47.000;16.084;2023-03-01T00:18:22;2.70;99.90
1594;DHT22;790;47.000;16.084;2023-03-01T00:20:50;2.70;99.90
1594;DHT22;790;47.000;16.084;2023-03-01T00:23:18;2.70;99.90
1594;DHT22;790;47.000;16.084;2023-03-01T00:25:48;2.60;99.90
1594;DHT22;790;47.000;16.084;2023-03-01T00:28:16;2.60;99.90
1594;DHT22;790;47.000;16.084;2023-03-01T00:30:43;2.60;99.90
1594;DHT22;790;47.000;16.084;2023-03-01T00:33:11;2.50;99.90
1594;DHT22;790;47.000;16.084;2023-03-01T00:35:38;2.50;99.90
1594;DHT22;790;47.000;16.084;2023-03-01T00:38:06;2.60;99.90
1594;DHT22;790;47.000;16.084;2023-03-01T00:40:35;2.60;99.90
1594;DHT22;790;47.000;16.084;2023-03-01T00:43:04;2.60;99.90
1594;DHT22;790;47.000;16.084;2023-03-01T00:45:32;2.60;99.90
1594;DHT22;790;47.000;16.084;2023-03-01T00:48:00;2.70;99.90
1594;DHT22;790;47.000;16.084;2023-03-01T00:50:27;2.70;99.90
1594;DHT22;790;47.000;16.084;2023-03-01T00:52:54;2.80;99.90
1594;DHT22;790;47.000;16.084;2023-03-01T00:55:22;2.80;99.90
1594;DHT22;790;47.000;16.084;2023-03-01T00:57:50;2.80;99.90
1594;DHT22;790;47.000;16.084;2023-03-01T01:00:20;2.90;99.90
1594;DHT22;790;47.000;16.084;2023-03-01T01:02:48;2.90;99.90
1594;DHT22;790;47.000;16.084;2023-03-01T01:05:15;2.90;99.90
1594;DHT22;790;47.000;16.084;2023-03-01T01:07:46;2.90;99.90
1594;DHT22;790;47.000;16.084;2023-03-01T01:10:14;2.70;99.90
1594;DHT22;790;47.000;16.084;2023-03-01T01:12:43;2.60;99.90
1594;DHT22;790;47.000;16.084;2023-03-01T01:15:11;2.60;99.90
1594;DHT22;790;47.000;16.084;2023-03-01T01:17:41;2.60;99.90
1594;DHT22;790;47.000;16.084;2023-03-01T01:20:09;2.50;99.90
1594;DHT22;790;47.000;16.084;2023-03-01T01:22:37;2.50;99.90
1594;DHT22;790;47.000;16.084;2023-03-01T01:25:04;2.60;99.90
1594;DHT22;790;47.000;16.084;2023-03-01T01:27:32;2.70;99.90
1594;DHT22;790;47.000;16.084;2023-03-01T01:30:00;2.70;99.90
1594;DHT22;790;47.000;16.084;2023-03-01T01:32:27;2.70;99.90
1594;DHT22;790;47.000;16.084;2023-03-01T01:34:55;2.80;99.90
1594;DHT22;790;47.000;16.084;2023-03-01T01:37:23;2.90;99.90
1594;DHT22;790;47.000;16.084;2023-03-01T01:39:57;2.90;99.90
1594;DHT22;790;47.000;16.084;2023-03-01T01:42:24;2.90;99.90
1594;DHT22;790;47.000;16.084;2023-03-01T01:45:26;2.90;99.90
1594;DHT22;790;47.000;16.084;2023-03-01T01:47:55;2.90;99.90
1594;DHT22;790;47.000;16.084;2023-03-01T01:50:27;2.90;99.90
1594;DHT22;790;47.000;16.084;2023-03-01T01:53:08;2.70;99.90
1594;DHT22;790;47.000;16.084;2023-03-01T01:55:37;2.60;99.90
1594;DHT22;790;47.000;16.084;2023-03-01T01:58:09;2.70;99.90
1594;DHT22;790;47.000;16.084;2023-03-01T02:00:38;2.80;99.90
1594;DHT22;790;47.000;16.084;2023-03-01T02:03:09;2.80;99.90
1594;DHT22;790;47.000;16.084;2023-03-01T02:05:42;2.80;99.90
1594;DHT22;790;47.000;16.084;2023-03-01T02:08:11;2.80;99.90
1594;DHT22;790;47.000;16.084;2023-03-01T02:10:41;2.80;99.90
1594;DHT22;790;47.000;16.084;2023-03-01T02:13:08;2.80;99.90
1594;DHT22;790;47.000;16.084;2023-03-01T02:15:37;2.60;99.90
1594;DHT22;790;47.000;16.084;2023-03-01T02:18:06;2.60;99.90
1594;DHT22;790;47.000;16.084;2023-03-01T02:20:39;2.50;99.90
1594;DHT22;790;47.000;16.084;2023-03-01T02:23:07;2.50;99.90
1594;DHT22;790;47.000;16.084;2023-03-01T02:25:41;2.70;99.90
1594;DHT22;790;47.000;16.084;2023-03-01T02:28:30;2.70;99.90
1594;DHT22;790;47.000;16.084;2023-03-01T02:30:58;2.70;99.90
1594;DHT22;790;47.000;16.084;2023-03-01T02:33:45;2.80;99.90
1594;DHT22;790;47.000;16.084;2023-03-01T02:36:17;2.80;99.90
1594;DHT22;790;47.000;16.084;2023-03-01T02:38:50;2.80;99.90
1594;DHT22;790;47.000;16.084;2023-03-01T02:41:19;2.80;99.90
1594;DHT22;790;47.000;16.084;2023-03-01T02:43:49;2.90;99.90
1594;DHT22;790;47.000;16.084;2023-03-01T02:46:18;2.90;99.90
1594;DHT22;790;47.000;16.084;2023-03-01T02:48:49;2.90;99.90
1594;DHT22;790;47.000;16.084;2023-03-01T02:54:15;2.90;99.90
1594;DHT22;790;47.000;16.084;2023-03-01T02:56:44;3.00;99.90
1594;DHT22;790;47.000;16.084;2023-03-01T02:59:15;3.00;99.90
1594;DHT22;790;47.000;16.084;2023-03-01T03:01:43;3.10;99.90
1594;DHT22;790;47.000;16.084;2023-03-01T03:04:13;3.10;99.90
1594;DHT22;790;47.000;16.084;2023-03-01T03:06:43;3.10;99.90
1594;DHT22;790;47.000;16.084;2023-03-01T03:09:10;3.20;99.90
1594;DHT22;790;47.000;16.084;2023-03-01T03:11:38;3.20;99.90
1594;DHT22;790;47.000;16.084;2023-03-01T03:14:07;3.10;99.90
1594;DHT22;790;47.000;16.084;2023-03-01T03:16:46;3.00;99.90
1594;DHT22;790;47.000;16.084;2023-03-01T03:19:15;3.00;99.90
1594;DHT22;790;47.000;16.084;2023-03-01T03:21:42;3.00;99.90
1594;DHT22;790;47.000;16.084;2023-03-01T03:24:09;3.00;99.90
1594;DHT22;790;47.000;16.084;2023-03-01T03:26:37;3.00;99.90
1594;DHT22;790;47.000;16.084;2023-03-01T03:29:04;3.00;99.90
1594;DHT22;790;47.000;16.084;2023-03-01T03:31:32;3.10;99.90
1594;DHT22;790;47.000;16.084;2023-03-01T03:34:00;3.10;99.90
1594;DHT22;790;47.000;16.084;2023-03-01T03:36:27;3.00;99.90
1594;DHT22;790;47.000;16.084;2023-03-01T03:38:55;3.10;99.90
1594;DHT22;790;47.000;16.084;2023-03-01T03:41:22;3.00;99.90
1594;DHT22;790;47.000;16.084;2023-03-01T03:43:49;3.00;99.90
1594;DHT22;790;47.000;16.084;2023-03-01T03:46:16;3.10;99.90
1594;DHT22;790;47.000;16.084;2023-03-01T03:48:44;3.00;99.90
1594;DHT22;790;47.000;16.084;2023-03-01T03:51:15;3.00;99.90
1594;DHT22;790;47.000;16.084;2023-03-01T03:53:43;3.10;99.90
1594;DHT22;790;47.000;16.084;2023-03-01T03:56:10;3.10;99.90
1594;DHT22;790;47.000;16.084;2023-03-01T03:58:38;3.20;99.90
1594;DHT22;790;47.000;16.084;2023-03-01T04:01:05;3.20;99.90
1594;DHT22;790;47.000;16.084;2023-03-01T04:03:33;3.20;99.90
1594;DHT22;790;47.000;16.084;2023-03-01T04:06:01;3.20;99.90
1594;DHT22;790;47.000;16.084;2023-03-01T04:08:31;3.20;99.90
1594;DHT22;790;47.000;16.084;2023-03-01T04:11:01;3.20;99.90
1594;DHT22;790;47.000;16.084;2023-03-01T04:13:51;3.20;99.90
1594;DHT22;790;47.000;16.084;2023-03-01T04:16:19;3.20;99.90
1594;DHT22;790;47.000;16.084;2023-03-01T04:18:46;3.20;99.90
1594;DHT22;790;47.000;16.084;2023-03-01T04:21:13;3.20;99.90
1594;DHT22;790;47.000;16.084;2023-03-01T04:23:42;3.20;99.90
1594;DHT22;790;47.000;16.084;2023-03-01T04:26:09;3.30;99.90
1594;DHT22;790;47.000;16.084;2023-03-01T04:28:38;3.30;99.90
1594;DHT22;790;47.000;16.084;2023-03-01T04:31:10;3.30;99.90
1594;DHT22;790;47.000;16.084;2023-03-01T04:33:41;3.30;99.90
1594;DHT22;790;47.000;16.084;2023-03-01T04:36:11;3.20;99.90
1594;DHT22;790;47.000;16.084;2023-03-01T04:38:38;3.20;99.90
1594;DHT22;790;47.000;16.084;2023-03-01T04:41:09;3.30;99.90
1594;DHT22;790;47.000;16.084;2023-03-01T04:43:37;3.30;99.90
1594;DHT22;790;47.000;16.084;2023-03-01T04:46:07;3.30;99.90
1594;DHT22;790;47.000;16.084;2023-03-01T04:48:35;3.30;99.90
1594;DHT22;790;47.000;16.084;2023-03-01T04:51:03;3.30;99.90
1594;DHT22;790;47.000;16.084;2023-03-01T04:53:33;3.30;99.90
1594;DHT22;790;47.000;16.084;2023-03-01T04:56:02;3.30;99.90
1594;DHT22;790;47.000;16.084;2023-03-01T04:58:30;3.20;99.90
1594;DHT22;790;47.000;16.084;2023-03-01T05:00:58;3.30;99.90
1594;DHT22;790;47.000;16.084;2023-03-01T05:03:26;3.20;99.90
1594;DHT22;790;47.000;16.084;2023-03-01T05:05:58;3.20;99.90
1594;DHT22;790;47.000;16.084;2023-03-01T05:08:26;3.10;99.90
1594;DHT22;790;47.000;16.084;2023-03-01T05:10:53;3.10;99.90
1594;DHT22;790;47.000;16.084;2023-03-01T05:13:21;3.10;99.90
1594;DHT22;790;47.000;16.084;2023-03-01T05:15:55;3.10;99.90
1594;DHT22;790;47.000;16.084;2023-03-01T05:18:23;3.10;99.90
1594;DHT22;790;47.000;16.084;2023-03-01T05:20:51;3.10;99.90
1594;DHT22;790;47.000;16.084;2023-03-01T05:23:22;3.20;99.90
1594;DHT22;790;47.000;16.084;2023-03-01T05:25:49;3.20;99.90
1594;DHT22;790;47.000;16.084;2023-03-01T05:28:19;3.20;99.90
1594;DHT22;790;47.000;16.084;2023-03-01T05:30:46;3.30;99.90
1594;DHT22;790;47.000;16.084;2023-03-01T05:33:22;3.30;99.90
1594;DHT22;790;47.000;16.084;2023-03-01T05:35:51;3.10;99.90
1594;DHT22;790;47.000;16.084;2023-03-01T05:38:19;3.00;99.90
1594;DHT22;790;47.000;16.084;2023-03-01T05:40:48;2.90;99.90
1594;DHT22;790;47.000;16.084;2023-03-01T05:43:16;3.00;99.90
1594;DHT22;790;47.000;16.084;2023-03-01T05:45:44;3.00;99.90
1594;DHT22;790;47.000;16.084;2023-03-01T05:48:12;2.90;99.90
1594;DHT22;790;47.000;16.084;2023-03-01T05:50:42;2.90;99.90
1594;DHT22;790;47.000;16.084;2023-03-01T05:53:12;2.90;99.90
1594;DHT22;790;47.000;16.084;2023-03-01T05:55:40;2.90;99.90
1594;DHT22;790;47.000;16.084;2023-03-01T05:58:10;2.90;99.90
1594;DHT22;790;47.000;16.084;2023-03-01T06:00:40;3.00;99.90
1594;DHT22;790;47.000;16.084;2023-03-01T06:03:10;3.00;99.90
1594;DHT22;790;47.000;16.084;2023-03-01T06:05:38;3.00;99.90
1594;DHT22;790;47.000;16.084;2023-03-01T06:08:09;3.00;99.90
1594;DHT22;790;47.000;16.084;2023-03-01T06:10:36;3.10;99.90
1594;DHT22;790;47.000;16.084;2023-03-01T06:13:04;3.10;99.90
1594;DHT22;790;47.000;16.084;2023-03-01T06:15:32;3.10;99.90
1594;DHT22;790;47.000;16.084;2023-03-01T06:18:30;3.10;99.90
1594;DHT22;790;47.000;16.084;2023-03-01T06:20:58;3.10;99.90
1594;DHT22;790;47.000;16.084;2023-03-01T06:23:30;3.10;99.90
1594;DHT22;790;47.000;16.084;2023-03-01T06:25:58;3.10;99.90
1594;DHT22;790;47.000;16.084;2023-03-01T06:28:26;3.10;99.90
1594;DHT22;790;47.000;16.084;2023-03-01T06:30:53;3.10;99.90
1594;DHT22;790;47.000;16.084;2023-03-01T06:33:21;3.30;99.90
1594;DHT22;790;47.000;16.084;2023-03-01T06:36:11;3.20;99.90
1594;DHT22;790;47.000;16.084;2023-03-01T06:38:50;3.30;99.90
1594;DHT22;790;47.000;16.084;2023-03-01T06:41:18;3.20;99.90
1594;DHT22;790;47.000;16.084;2023-03-01T06:44:02;3.20;99.90
1594;DHT22;790;47.000;16.084;2023-03-01T06:46:47;3.30;99.90
1594;DHT22;790;47.000;16.084;2023-03-01T06:49:28;3.40;99.90
1594;DHT22;790;47.000;16.084;2023-03-01T06:51:58;3.40;99.90
1594;DHT22;790;47.000;16.084;2023-03-01T06:54:30;3.40;99.90
1594;DHT22;790;47.000;16.084;2023-03-01T06:57:02;3.40;99.90
1594;DHT22;790;47.000;16.084;2023-03-01T06:59:29;3.40;99.90
1594;DHT22;790;47.000;16.084;2023-03-01T07:02:05;3.40;99.90
1594;DHT22;790;47.000;16.084;2023-03-01T07:04:33;3.50;99.90
1594;DHT22;790;47.000;16.084;2023-03-01T07:07:00;3.50;99.90
1594;DHT22;790;47.000;16.084;2023-03-01T07:09:30;3.50;99.90
1594;DHT22;790;47.000;16.084;2023-03-01T07:12:03;3.50;99.90
1594;DHT22;790;47.000;16.084;2023-03-01T07:14:30;3.50;99.90
1594;DHT22;790;47.000;16.084;2023-03-01T07:17:00;3.60;99.90
1594;DHT22;790;47.000;16.084;2023-03-01T07:19:28;3.60;99.90
1594;DHT22;790;47.000;16.084;2023-03-01T07:21:55;3.60;99.90
1594;DHT22;790;47.000;16.084;2023-03-01T07:24:23;3.70;99.90
1594;DHT22;790;47.000;16.084;2023-03-01T07:26:53;3.70;99.90
1594;DHT22;790;47.000;16.084;2023-03-01T07:29:25;3.80;99.90
1594;DHT22;790;47.000;16.084;2023-03-01T07:31:55;3.70;99.90
1594;DHT22;790;47.000;16.084;2023-03-01T07:34:22;3.80;99.90
1594;DHT22;790;47.000;16.084;2023-03-01T07:36:49;3.80;99.90
1594;DHT22;790;47.000;16.084;2023-03-01T07:39:16;3.80;99.90
1594;DHT22;790;47.000;16.084;2023-03-01T07:41:44;3.90;99.90
1594;DHT22;790;47.000;16.084;2023-03-01T07:44:14;3.90;99.90
1594;DHT22;790;47.000;16.084;2023-03-01T07:46:44;3.90;99.90
1594;DHT22;790;47.000;16.084;2023-03-01T07:49:14;4.00;99.90
1594;DHT22;790;47.000;16.084;2023-03-01T07:51:43;4.10;99.90
1594;DHT22;790;47.000;16.084;2023-03-01T07:54:11;4.10;99.90
1594;DHT22;790;47.000;16.084;2023-03-01T07:56:38;4.20;99.90
1594;DHT22;790;47.000;16.084;2023-03-01T07:59:07;4.20;99.90
1594;DHT22;790;47.000;16.084;2023-03-01T08:01:35;4.30;99.90
1594;DHT22;790;47.000;16.084;2023-03-01T08:04:05;4.40;99.90
1594;DHT22;790;47.000;16.084;2023-03-01T08:06:35;4.30;99.90
1594;DHT22;790;47.000;16.084;2023-03-01T08:09:04;4.30;99.90
1594;DHT22;790;47.000;16.084;2023-03-01T08:11:34;4.40;99.90
1594;DHT22;790;47.000;16.084;2023-03-01T08:14:06;4.40;99.90
1594;DHT22;790;47.000;16.084;2023-03-01T08:19:44;4.50;99.90
1594;DHT22;790;47.000;16.084;2023-03-01T08:22:14;4.40;99.90
1594;DHT22;790;47.000;16.084;2023-03-01T08:24:43;4.40;99.90
1594;DHT22;790;47.000;16.084;2023-03-01T08:27:43;4.30;99.90
1594;DHT22;790;47.000;16.084;2023-03-01T08:30:14;4.30;99.90
1594;DHT22;790;47.000;16.084;2023-03-01T08:32:41;4.30;99.90
1594;DHT22;790;47.000;16.084;2023-03-01T08:38:17;4.30;99.90
1594;DHT22;790;47.000;16.084;2023-03-01T08:40:45;4.30;99.90
1594;DHT22;790;47.000;16.084;2023-03-01T08:43:13;4.40;99.90
1594;DHT22;790;47.000;16.084;2023-03-01T08:45:42;4.40;99.90
1594;DHT22;790;47.000;16.084;2023-03-01T08:48:13;4.50;99.90
1594;DHT22;790;47.000;16.084;2023-03-01T08:50:41;4.50;99.90
1594;DHT22;790;47.000;16.084;2023-03-01T08:53:19;4.60;99.90
1594;DHT22;790;47.000;16.084;2023-03-01T08:56:02;4.60;99.90
1594;DHT22;790;47.000;16.084;2023-03-01T08:58:51;4.60;99.90
1594;DHT22;790;47.000;16.084;2023-03-01T09:01:35;4.70;99.90
1594;DHT22;790;47.000;16.084;2023-03-01T09:04:10;4.60;99.90
1594;DHT22;790;47.000;16.084;2023-03-01T09:06:38;4.70;99.90
1594;DHT22;790;47.000;16.084;2023-03-01T09:09:10;4.80;99.90
1594;DHT22;790;47.000;16.084;2023-03-01T09:11:40;4.80;99.90
1594;DHT22;790;47.000;16.084;2023-03-01T09:14:07;4.80;99.90
1594;DHT22;790;47.000;16.084;2023-03-01T09:16:35;4.80;99.90
1594;DHT22;790;47.000;16.084;2023-03-01T09:19:02;4.80;99.90
1594;DHT22;790;47.000;16.084;2023-03-01T09:21:29;4.90;99.90
1594;DHT22;790;47.000;16.084;2023-03-01T09:24:21;4.90;99.90
1594;DHT22;790;47.000;16.084;2023-03-01T09:27:02;5.00;99.90
1594;DHT22;790;47.000;16.084;2023-03-01T09:29:38;5.00;99.90
1594;DHT22;790;47.000;16.084;2023-03-01T09:32:08;5.10;99.90
1594;DHT22;790;47.000;16.084;2023-03-01T09:34:36;5.10;99.90
1594;DHT22;790;47.000;16.084;2023-03-01T09:37:34;5.10;99.90
1594;DHT22;790;47.000;16.084;2023-03-01T09:40:27;5.10;99.90
1594;DHT22;790;47.000;16.084;2023-03-01T09:43:20;5.20;99.90
1594;DHT22;790;47.000;16.084;2023-03-01T09:45:51;5.20;99.90
1594;DHT22;790;47.000;16.084;2023-03-01T09:48:27;5.30;99.90
1594;DHT22;790;47.000;16.084;2023-03-01T09:51:19;5.30;99.90
1594;DHT22;790;47.000;16.084;2023-03-01T09:56:57;5.40;99.90
1594;DHT22;790;47.000;16.084;2023-03-01T09:59:30;5.50;99.90
1594;DHT22;790;47.000;16.084;2023-03-01T10:02:16;5.50;99.90
1594;DHT22;790;47.000;16.084;2023-03-01T10:04:59;5.50;99.90
1594;DHT22;790;47.000;16.084;2023-03-01T10:07:50;5.60;99.90
1594;DHT22;790;47.000;16.084;2023-03-01T10:10:26;5.70;99.90
1594;DHT22;790;47.000;16.084;2023-03-01T10:12:56;5.80;99.90
1594;DHT22;790;47.000;16.084;2023-03-01T10:15:32;5.70;99.90
1594;DHT22;790;47.000;16.084;2023-03-01T10:18:04;5.70;99.90
1594;DHT22;790;47.000;16.084;2023-03-01T10:20:41;5.70;99.90
1594;DHT22;790;47.000;16.084;2023-03-01T10:23:10;5.60;99.90
1594;DHT22;790;47.000;16.084;2023-03-01T10:26:15;5.60;99.90
1594;DHT22;790;47.000;16.084;2023-03-01T10:28:54;5.70;99.90
1594;DHT22;790;47.000;16.084;2023-03-01T10:31:32;5.80;99.90
1594;DHT22;790;47.000;16.084;2023-03-01T10:34:04;5.80;99.90
1594;DHT22;790;47.000;16.084;2023-03-01T10:36:35;5.90;99.90
1594;DHT22;790;47.000;16.084;2023-03-01T10:39:12;6.00;99.90
1594;DHT22;790;47.000;16.084;2023-03-01T10:41:53;6.00;99.90
1594;DHT22;790;47.000;16.084;2023-03-01T10:44:49;6.00;99.90
1594;DHT22;790;47.000;16.084;2023-03-01T10:47:19;6.10;99.90
1594;DHT22;790;47.000;16.084;2023-03-01T10:49:58;6.10;99.90
1594;DHT22;790;47.000;16.084;2023-03-01T10:52:31;6.00;99.90
1594;DHT22;790;47.000;16.084;2023-03-01T10:55:08;6.00;99.90
1594;DHT22;790;47.000;16.084;2023-03-01T10:58:15;6.10;99.90
1594;DHT22;790;47.000;16.084;2023-03-01T11:01:04;6.20;99.90
1594;DHT22;790;47.000;16.084;2023-03-01T11:03:35;6.20;99.90
1594;DHT22;790;47.000;16.084;2023-03-01T11:06:19;6.20;99.90
1594;DHT22;790;47.000;16.084;2023-03-01T11:08:51;6.20;99.90
1594;DHT22;790;47.000;16.084;2023-03-01T11:11:29;6.20;99.90
1594;DHT22;790;47.000;16.084;2023-03-01T11:14:00;6.40;99.90
1594;DHT22;790;47.000;16.084;2023-03-01T11:16:36;6.40;99.90
1594;DHT22;790;47.000;16.084;2023-03-01T11:19:18;6.40;99.90
1594;DHT22;790;47.000;16.084;2023-03-01T11:21:59;6.50;99.90
1594;DHT22;790;47.000;16.084;2023-03-01T11:24:37;6.60;99.90
1594;DHT22;790;47.000;16.084;2023-03-01T11:27:43;6.60;99.90
1594;DHT22;790;47.000;16.084;2023-03-01T11:30:20;6.50;99.90
1594;DHT22;790;47.000;16.084;2023-03-01T11:32:54;6.50;99.90
1594;DHT22;790;47.000;16.084;2023-03-01T11:35:27;6.50;99.90
1594;DHT22;790;47.000;16.084;2023-03-01T11:38:09;6.50;99.90
1594;DHT22;790;47.000;16.084;2023-03-01T11:40:46;6.60;99.90
1594;DHT22;790;47.000;16.084;2023-03-01T11:43:19;6.60;99.90
1594;DHT22;790;47.000;16.084;2023-03-01T11:46:12;6.50;99.90
1594;DHT22;790;47.000;16.084;2023-03-01T11:48:55;6.60;99.90
1594;DHT22;790;47.000;16.084;2023-03-01T11:51:41;6.70;99.90
1594;DHT22;790;47.000;16.084;2023-03-01T11:54:21;6.60;99.90
1594;DHT22;790;47.000;16.084;2023-03-01T11:56:55;6.60;99.90
1594;DHT22;790;47.000;16.084;2023-03-01T12:02:42;6.80;99.90
1594;DHT22;790;47.000;16.084;2023-03-01T12:05:24;6.80;99.90
1594;DHT22;790;47.000;16.084;2023-03-01T12:08:00;6.80;99.90
1594;DHT22;790;47.000;16.084;2023-03-01T12:10:42;6.80;99.90
1594;DHT22;790;47.000;16.084;2023-03-01T12:13:59;6.80;99.90
1594;DHT22;790;47.000;16.084;2023-03-01T12:17:06;6.80;99.90
1594;DHT22;790;47.000;16.084;2023-03-01T12:20:14;6.70;99.90
1594;DHT22;790;47.000;16.084;2023-03-01T12:23:00;6.70;99.90
1594;DHT22;790;47.000;16.084;2023-03-01T12:25:36;6.70;99.90
1594;DHT22;790;47.000;16.084;2023-03-01T12:28:33;6.80;99.90
1594;DHT22;790;47.000;16.084;2023-03-01T12:35:05;6.80;99.90
1594;DHT22;790;47.000;16.084;2023-03-01T12:38:14;6.80;99.90
1594;DHT22;790;47.000;16.084;2023-03-01T12:44:01;6.90;99.90
1594;DHT22;790;47.000;16.084;2023-03-01T12:46:56;6.90;99.90
1594;DHT22;790;47.000;16.084;2023-03-01T12:49:49;6.90;99.90
1594;DHT22;790;47.000;16.084;2023-03-01T12:52:54;6.80;99.90
1594;DHT22;790;47.000;16.084;2023-03-01T12:55:31;6.80;99.90
1594;DHT22;790;47.000;16.084;2023-03-01T12:58:11;6.90;99.90
1594;DHT22;790;47.000;16.084;2023-03-01T13:00:50;6.90;99.90
1594;DHT22;790;47.000;16.084;2023-03-01T13:03:25;7.10;99.90
1594;DHT22;790;47.000;16.084;2023-03-01T13:06:10;7.00;99.90
1594;DHT22;790;47.000;16.084;2023-03-01T13:08:42;7.20;99.90
1594;DHT22;790;47.000;16.084;2023-03-01T13:11:19;7.20;99.90
1594;DHT22;790;47.000;16.084;2023-03-01T13:13:50;7.20;99.90
1594;DHT22;790;47.000;16.084;2023-03-01T13:16:27;7.20;99.90
1594;DHT22;790;47.000;16.084;2023-03-01T13:19:12;7.30;99.90
1594;DHT22;790;47.000;16.084;2023-03-01T13:21:41;7.30;99.90
1594;DHT22;790;47.000;16.084;2023-03-01T13:24:24;7.20;99.90
1594;DHT22;790;47.000;16.084;2023-03-01T13:27:26;7.30;99.90
1594;DHT22;790;47.000;16.084;2023-03-01T13:30:48;7.30;99.90
1594;DHT22;790;47.000;16.084;2023-03-01T13:33:59;7.30;99.90
1594;DHT22;790;47.000;16.084;2023-03-01T13:37:10;7.20;99.90
1594;DHT22;790;47.000;16.084;2023-03-01T13:42:53;7.10;99.90
1594;DHT22;790;47.000;16.084;2023-03-01T13:48:44;7.10;99.90
1594;DHT22;790;47.000;16.084;2023-03-01T13:51:24;7.10;99.90
1594;DHT22;790;47.000;16.084;2023-03-01T13:53:54;7.10;99.90
1594;DHT22;790;47.000;16.084;2023-03-01T13:56:38;7.10;99.90
1594;DHT22;790;47.000;16.084;2023-03-01T13:59:32;7.20;99.90
1594;DHT22;790;47.000;16.084;2023-03-01T14:02:02;7.20;99.90
1594;DHT22;790;47.000;16.084;2023-03-01T14:04:37;7.30;99.90
1594;DHT22;790;47.000;16.084;2023-03-01T14:07:27;7.20;99.90
1594;DHT22;790;47.000;16.084;2023-03-01T14:10:04;7.20;99.90
1594;DHT22;790;47.000;16.084;2023-03-01T14:12:42;7.20;99.90
1594;DHT22;790;47.000;16.084;2023-03-01T14:15:17;7.10;99.90
1594;DHT22;790;47.000;16.084;2023-03-01T14:18:02;7.00;99.90
1594;DHT22;790;47.000;16.084;2023-03-01T14:20:49;7.00;99.90
1594;DHT22;790;47.000;16.084;2023-03-01T14:23:20;7.00;99.90
1594;DHT22;790;47.000;16.084;2023-03-01T14:25:50;7.00;99.90
1594;DHT22;790;47.000;16.084;2023-03-01T14:28:19;7.00;99.90
1594;DHT22;790;47.000;16.084;2023-03-01T14:30:52;7.00;99.90
1594;DHT22;790;47.000;16.084;2023-03-01T14:33:22;7.00;99.90
1594;DHT22;790;47.000;16.084;2023-03-01T14:35:58;7.00;99.90
1594;DHT22;790;47.000;16.084;2023-03-01T14:38:49;7.00;99.90
1594;DHT22;790;47.000;16.084;2023-03-01T14:41:19;7.00;99.90
1594;DHT22;790;47.000;16.084;2023-03-01T14:43:50;7.10;99.90
1594;DHT22;790;47.000;16.084;2023-03-01T14:46:24;7.10;99.90
1594;DHT22;790;47.000;16.084;2023-03-01T14:48:57;7.20;99.90
1594;DHT22;790;47.000;16.084;2023-03-01T14:51:35;7.20;99.90
1594;DHT22;790;47.000;16.084;2023-03-01T14:54:20;7.20;99.90
1594;DHT22;790;47.000;16.084;2023-03-01T14:56:51;7.10;99.90
1594;DHT22;790;47.000;16.084;2023-03-01T14:59:21;7.10;99.90
1594;DHT22;790;47.000;16.084;2023-03-01T15:01:54;7.10;99.90
1594;DHT22;790;47.000;16.084;2023-03-01T15:04:25;7.10;99.90
1594;DHT22;790;47.000;16.084;2023-03-01T15:06:57;7.10;99.90
1594;DHT22;790;47.000;16.084;2023-03-01T15:09:34;7.10;99.90
1594;DHT22;790;47.000;16.084;2023-03-01T15:12:36;7.10;99.90
1594;DHT22;790;47.000;16.084;2023-03-01T15:15:20;7.10;99.90
1594;DHT22;790;47.000;16.084;2023-03-01T15:17:52;7.20;99.90
1594;DHT22;790;47.000;16.084;2023-03-01T15:20:26;7.00;99.90
1594;DHT22;790;47.000;16.084;2023-03-01T15:22:56;6.90;99.90
1594;DHT22;790;47.000;16.084;2023-03-01T15:25:30;6.90;99.90
1594;DHT22;790;47.000;16.084;2023-03-01T15:28:03;6.90;99.90
1594;DHT22;790;47.000;16.084;2023-03-01T15:30:37;6.80;99.90
1594;DHT22;790;47.000;16.084;2023-03-01T15:33:40;6.80;99.90
1594;DHT22;790;47.000;16.084;2023-03-01T15:36:36;6.90;99.90
1594;DHT22;790;47.000;16.084;2023-03-01T15:39:31;6.80;99.90
1594;DHT22;790;47.000;16.084;2023-03-01T15:42:36;6.80;99.90
1594;DHT22;790;47.000;16.084;2023-03-01T15:45:09;6.80;99.90
1594;DHT22;790;47.000;16.084;2023-03-01T15:48:17;6.70;99.90
1594;DHT22;790;47.000;16.084;2023-03-01T15:50:54;6.70;99.90
1594;DHT22;790;47.000;16.084;2023-03-01T15:53:27;6.70;99.90
1594;DHT22;790;47.000;16.084;2023-03-01T15:55:59;6.60;99.90
1594;DHT22;790;47.000;16.084;2023-03-01T15:58:47;6.60;99.90
1594;DHT22;790;47.000;16.084;2023-03-01T16:01:20;6.60;99.90
1594;DHT22;790;47.000;16.084;2023-03-01T16:03:48;6.60;99.90
1594;DHT22;790;47.000;16.084;2023-03-01T16:06:19;6.60;99.90
1594;DHT22;790;47.000;16.084;2023-03-01T16:09:05;6.60;99.90
1594;DHT22;790;47.000;16.084;2023-03-01T16:11:38;6.60;99.90
1594;DHT22;790;47.000;16.084;2023-03-01T16:14:11;6.50;99.90
1594;DHT22;790;47.000;16.084;2023-03-01T16:16:40;6.50;99.90
1594;DHT22;790;47.000;16.084;2023-03-01T16:19:07;6.50;99.90
1594;DHT22;790;47.000;16.084;2023-03-01T16:21:37;6.50;99.90
1594;DHT22;790;47.000;16.084;2023-03-01T16:24:31;6.50;99.90
1594;DHT22;790;47.000;16.084;2023-03-01T16:26:59;6.50;99.90
1594;DHT22;790;47.000;16.084;2023-03-01T16:29:26;6.40;99.90
1594;DHT22;790;47.000;16.084;2023-03-01T16:31:54;6.40;99.90
1594;DHT22;790;47.000;16.084;2023-03-01T16:34:21;6.40;99.90
1594;DHT22;790;47.000;16.084;2023-03-01T16:36:50;6.40;99.90
1594;DHT22;790;47.000;16.084;2023-03-01T16:39:17;6.30;99.90
1594;DHT22;790;47.000;16.084;2023-03-01T16:41:44;6.30;99.90
1594;DHT22;790;47.000;16.084;2023-03-01T16:44:13;6.30;99.90
1594;DHT22;790;47.000;16.084;2023-03-01T16:46:46;6.30;99.90
1594;DHT22;790;47.000;16.084;2023-03-01T16:49:13;6.20;99.90
1594;DHT22;790;47.000;16.084;2023-03-01T16:51:43;6.20;99.90
1594;DHT22;790;47.000;16.084;2023-03-01T16:54:14;6.30;99.90
1594;DHT22;790;47.000;16.084;2023-03-01T16:56:41;6.20;99.90
1594;DHT22;790;47.000;16.084;2023-03-01T16:59:08;6.10;99.90
1594;DHT22;790;47.000;16.084;2023-03-01T17:01:35;6.20;99.90
1594;DHT22;790;47.000;16.084;2023-03-01T17:04:08;6.20;99.90
1594;DHT22;790;47.000;16.084;2023-03-01T17:06:37;6.10;99.90
1594;DHT22;790;47.000;16.084;2023-03-01T17:09:05;6.20;99.90
1594;DHT22;790;47.000;16.084;2023-03-01T17:11:35;6.10;99.90
1594;DHT22;790;47.000;16.084;2023-03-01T17:14:02;6.20;99.90
1594;DHT22;790;47.000;16.084;2023-03-01T17:16:30;6.30;99.90
1594;DHT22;790;47.000;16.084;2023-03-01T17:18:57;6.20;99.90
1594;DHT22;790;47.000;16.084;2023-03-01T17:21:24;6.30;99.90
1594;DHT22;790;47.000;16.084;2023-03-01T17:23:55;6.20;99.90
1594;DHT22;790;47.000;16.084;2023-03-01T17:26:22;6.20;99.90
1594;DHT22;790;47.000;16.084;2023-03-01T17:28:50;6.10;99.90
1594;DHT22;790;47.000;16.084;2023-03-01T17:31:18;6.20;99.90